sensor_id;sensor_type;location;lat;lon;timestamp;pressure;altitude;pressure_sealevel;temperature;humidity
29433;BME280;16405;53.964;13.448;2024-02-28T00:00:17;101496.22;;;2.00;100.00
29433;BME280;16405;53.964;13.448;2024-02-28T00:02:50;101497.97;;;2.01;100.00
29433;BME280;16405;53.964;13.448;2024-02-28T00:05:16;101506.63;;;2.08;100.00
29433;BME280;16405;53.964;13.448;2024-02-28T00:07:42;101504.00;;;2.11;100.00
29433;BME280;16405;53.964;13.448;2024-02-28T00:10:17;101509.22;;;2.18;100.00
29433;BME280;16405;53.964;13.448;2024-02-28T00:12:43;101507.47;;;2.17;100.00
29433;BME280;16405;53.964;13.448;2024-02-28T00:15:09;101501.41;;;2.21;100.00
29433;BME280;16405;53.964;13.448;2024-02-28T00:17:42;101500.53;;;2.22;100.00
29433;BME280;16405;53.964;13.448;2024-02-28T00:20:09;101499.69;;;2.22;100.00
29433;BME280;16405;53.964;13.448;2024-02-28T00:22:38;101503.13;;;2.22;100.00
29433;BME280;16405;53.964;13.448;2024-02-28T00:25:11;101503.16;;;2.29;100.00
29433;BME280;16405;53.964;13.448;2024-02-28T00:27:39;101497.97;;;2.32;100.00
29433;BME280;16405;53.964;13.448;2024-02-28T00:30:05;101488.41;;;2.35;100.00
29433;BME280;16405;53.964;13.448;2024-02-28T00:32:39;101491.88;;;2.39;100.00
29433;BME280;16405;53.964;13.448;2024-02-28T00:35:06;101495.34;;;2.42;100.00
29433;BME280;16405;53.964;13.448;2024-02-28T00:37:33;101496.22;;;2.40;100.00
29433;BME280;16405;53.964;13.448;2024-02-28T00:39:59;101489.28;;;2.39;100.00
29433;BME280;16405;53.964;13.448;2024-02-28T00:42:33;101490.16;;;2.36;100.00
29433;BME280;16405;53.964;13.448;2024-02-28T00:44:59;101496.22;;;2.38;100.00
29433;BME280;16405;53.964;13.448;2024-02-28T00:47:25;101497.94;;;2.41;100.00
29433;BME280;16405;53.964;13.448;2024-02-28T00:49:59;101491.88;;;2.45;100.00
29433;BME280;16405;53.964;13.448;2024-02-28T00:52:25;101496.22;;;2.47;100.00
29433;BME280;16405;53.964;13.448;2024-02-28T00:54:51;101501.41;;;2.49;100.00
29433;BME280;16405;53.964;13.448;2024-02-28T00:57:17;101501.44;;;2.44;100.00
29433;BME280;16405;53.964;13.448;2024-02-28T00:59:52;101506.63;;;2.43;100.00
29433;BME280;16405;53.964;13.448;2024-02-28T01:02:20;101494.50;;;2.36;100.00
29433;BME280;16405;53.964;13.448;2024-02-28T01:04:47;101495.34;;;2.36;100.00
29433;BME280;16405;53.964;13.448;2024-02-28T01:07:20;101504.88;;;2.28;100.00
29433;BME280;16405;53.964;13.448;2024-02-28T01:09:46;101509.22;;;2.12;100.00
29433;BME280;16405;53.964;13.448;2024-02-28T01:12:12;101517.84;;;2.11;100.00
29433;BME280;16405;53.964;13.448;2024-02-28T01:14:38;101516.13;;;2.02;100.00
29433;BME280;16405;53.964;13.448;2024-02-28T01:17:13;101509.19;;;2.04;100.00
29433;BME280;16405;53.964;13.448;2024-02-28T01:19:39;101515.25;;;1.96;100.00
29433;BME280;16405;53.964;13.448;2024-02-28T01:22:05;101514.38;;;1.89;100.00
29433;BME280;16405;53.964;13.448;2024-02-28T01:24:31;101504.00;;;1.86;100.00
29433;BME280;16405;53.964;13.448;2024-02-28T01:27:01;101510.00;;;1.79;100.00
29433;BME280;16405;53.964;13.448;2024-02-28T01:29:27;101507.44;;;1.77;100.00
29433;BME280;16405;53.964;13.448;2024-02-28T01:31:53;101510.00;;;1.71;100.00
29433;BME280;16405;53.964;13.448;2024-02-28T01:34:19;101503.06;;;1.70;100.00
29433;BME280;16405;53.964;13.448;2024-02-28T01:36:45;101509.16;;;1.69;100.00
29433;BME280;16405;53.964;13.448;2024-02-28T01:39:11;101508.28;;;1.72;100.00
29433;BME280;16405;53.964;13.448;2024-02-28T01:41:49;101503.94;;;1.64;100.00
29433;BME280;16405;53.964;13.448;2024-02-28T01:44:15;101504.78;;;1.59;100.00
29433;BME280;16405;53.964;13.448;2024-02-28T01:46:48;101510.81;;;1.55;100.00
29433;BME280;16405;53.964;13.448;2024-02-28T01:49:16;101509.09;;;1.54;100.00
29433;BME280;16405;53.964;13.448;2024-02-28T01:51:42;101505.59;;;1.46;100.00
29433;BME280;16405;53.964;13.448;2024-02-28T01:54:16;101502.13;;;1.47;100.00
29433;BME280;16405;53.964;13.448;2024-02-28T01:56:42;101512.53;;;1.53;100.00
29433;BME280;16405;53.964;13.448;2024-02-28T01:59:10;101509.06;;;1.51;100.00
29433;BME280;16405;53.964;13.448;2024-02-28T02:01:45;101515.16;;;1.54;100.00
29433;BME280;16405;53.964;13.448;2024-02-28T02:04:11;101514.28;;;1.49;100.00
29433;BME280;16405;53.964;13.448;2024-02-28T02:06:38;101510.81;;;1.53;100.00
29433;BME280;16405;53.964;13.448;2024-02-28T02:09:12;101512.53;;;1.53;100.00
29433;BME280;16405;53.964;13.448;2024-02-28T02:11:39;101512.53;;;1.50;100.00
29433;BME280;16405;53.964;13.448;2024-02-28T02:14:05;101506.50;;;1.49;100.00
29433;BME280;16405;53.964;13.448;2024-02-28T02:16:31;101500.44;;;1.47;100.00
29433;BME280;16405;53.964;13.448;2024-02-28T02:19:08;101509.06;;;1.41;100.00
29433;BME280;16405;53.964;13.448;2024-02-28T02:21:57;101506.44;;;1.35;100.00
29433;BME280;16405;53.964;13.448;2024-02-28T02:24:23;101509.88;;;1.30;100.00
29433;BME280;16405;53.964;13.448;2024-02-28T02:26:49;101506.38;;;1.20;100.00
29433;BME280;16405;53.964;13.448;2024-02-28T02:29:18;101502.94;;;1.21;100.00
29433;BME280;16405;53.964;13.448;2024-02-28T02:31:51;101503.78;;;1.20;100.00
29433;BME280;16405;53.964;13.448;2024-02-28T02:34:17;101504.63;;;1.17;100.00
29433;BME280;16405;53.964;13.448;2024-02-28T02:36:42;101503.78;;;1.23;100.00
29433;BME280;16405;53.964;13.448;2024-02-28T02:39:08;101502.88;;;1.12;100.00
29433;BME280;16405;53.964;13.448;2024-02-28T02:41:34;101502.88;;;1.16;100.00
29433;BME280;16405;53.964;13.448;2024-02-28T02:44:09;101497.69;;;1.12;100.00
29433;BME280;16405;53.964;13.448;2024-02-28T02:46:34;101492.47;;;1.07;100.00
29433;BME280;16405;53.964;13.448;2024-02-28T02:49:00;101497.69;;;1.10;100.00
29433;BME280;16405;53.964;13.448;2024-02-28T02:51:26;101488.16;;;1.08;100.00
29433;BME280;16405;53.964;13.448;2024-02-28T02:53:59;101496.81;;;1.10;100.00
29433;BME280;16405;53.964;13.448;2024-02-28T02:56:25;101492.50;;;1.10;100.00
29433;BME280;16405;53.964;13.448;2024-02-28T02:58:51;101490.78;;;1.11;100.00
29433;BME280;16405;53.964;13.448;2024-02-28T03:01:16;101494.22;;;1.10;100.00
29433;BME280;16405;53.964;13.448;2024-02-28T03:03:42;101498.59;;;1.20;100.00
29433;BME280;16405;53.964;13.448;2024-02-28T03:06:11;101501.19;;;1.23;100.00
29433;BME280;16405;53.964;13.448;2024-02-28T03:08:39;101496.91;;;1.28;100.00
29433;BME280;16405;53.964;13.448;2024-02-28T03:11:05;101498.63;;;1.28;100.00
29433;BME280;16405;53.964;13.448;2024-02-28T03:13:34;101496.00;;;1.23;100.00
29433;BME280;16405;53.964;13.448;2024-02-28T03:16:07;101491.69;;;1.22;100.00
29433;BME280;16405;53.964;13.448;2024-02-28T03:18:33;101496.00;;;1.20;100.00
29433;BME280;16405;53.964;13.448;2024-02-28T03:20:59;101498.59;;;1.23;100.00
29433;BME280;16405;53.964;13.448;2024-02-28T03:23:25;101494.28;;;1.23;100.00
29433;BME280;16405;53.964;13.448;2024-02-28T03:25:51;101495.16;;;1.21;100.00
29433;BME280;16405;53.964;13.448;2024-02-28T03:28:25;101490.78;;;1.18;100.00
29433;BME280;16405;53.964;13.448;2024-02-28T03:30:51;101481.25;;;1.14;100.00
29433;BME280;16405;53.964;13.448;2024-02-28T03:33:17;101491.66;;;1.16;100.00
29433;BME280;16405;53.964;13.448;2024-02-28T03:35:43;101488.19;;;1.11;100.00
29433;BME280;16405;53.964;13.448;2024-02-28T03:38:14;101491.63;;;1.10;100.00
29433;BME280;16405;53.964;13.448;2024-02-28T03:40:40;101493.34;;;1.08;100.00
29433;BME280;16405;53.964;13.448;2024-02-28T03:43:06;101496.84;;;1.17;100.00
29433;BME280;16405;53.964;13.448;2024-02-28T03:45:41;101494.25;;;1.13;100.00
29433;BME280;16405;53.964;13.448;2024-02-28T03:48:07;101502.91;;;1.15;100.00
29433;BME280;16405;53.964;13.448;2024-02-28T03:50:33;101506.34;;;1.18;100.00
29433;BME280;16405;53.964;13.448;2024-02-28T03:52:59;101501.19;;;1.21;100.00
29433;BME280;16405;53.964;13.448;2024-02-28T03:55:24;101502.91;;;1.22;100.00
29433;BME280;16405;53.964;13.448;2024-02-28T03:57:50;101504.66;;;1.27;100.00
29433;BME280;16405;53.964;13.448;2024-02-28T04:00:17;101514.16;;;1.23;100.00
29433;BME280;16405;53.964;13.448;2024-02-28T04:02:46;101501.16;;;1.18;100.00
29433;BME280;16405;53.964;13.448;2024-02-28T04:05:12;101514.16;;;1.17;100.00
29433;BME280;16405;53.964;13.448;2024-02-28T04:07:38;101517.50;;;1.03;100.00
29433;BME280;16405;53.964;13.448;2024-02-28T04:10:04;101522.69;;;0.99;100.00
29433;BME280;16405;53.964;13.448;2024-02-28T04:12:31;101523.53;;;0.92;100.00
29433;BME280;16405;53.964;13.448;2024-02-28T04:15:06;101525.25;;;0.91;100.00
29433;BME280;16405;53.964;13.448;2024-02-28T04:17:32;101536.50;;;0.93;100.00
29433;BME280;16405;53.964;13.448;2024-02-28T04:19:57;101534.78;;;0.94;100.00
29433;BME280;16405;53.964;13.448;2024-02-28T04:22:23;101531.31;;;0.93;100.00
29433;BME280;16405;53.964;13.448;2024-02-28T04:24:54;101538.22;;;0.94;100.00
29433;BME280;16405;53.964;13.448;2024-02-28T04:27:21;101534.75;;;0.89;100.00
29433;BME280;16405;53.964;13.448;2024-02-28T04:29:47;101525.22;;;0.93;100.00
29433;BME280;16405;53.964;13.448;2024-02-28T04:32:13;101524.41;;;0.97;100.00
29433;BME280;16405;53.964;13.448;2024-02-28T04:34:38;101509.75;;;1.02;100.00
29433;BME280;16405;53.964;13.448;2024-02-28T04:37:13;101503.72;;;1.08;100.00
29433;BME280;16405;53.964;13.448;2024-02-28T04:39:40;101503.75;;;1.11;100.00
29433;BME280;16405;53.964;13.448;2024-02-28T04:42:06;101509.81;;;1.17;100.00
29433;BME280;16405;53.964;13.448;2024-02-28T04:44:40;101510.72;;;1.24;100.00
29433;BME280;16405;53.964;13.448;2024-02-28T04:47:06;101518.50;;;1.26;100.00
29433;BME280;16405;53.964;13.448;2024-02-28T04:49:32;101515.03;;;1.25;100.00
29433;BME280;16405;53.964;13.448;2024-02-28T04:51:57;101516.75;;;1.23;100.00
29433;BME280;16405;53.964;13.448;2024-02-28T04:54:26;101525.38;;;1.20;100.00
29433;BME280;16405;53.964;13.448;2024-02-28T04:56:55;101533.16;;;1.13;100.00
29433;BME280;16405;53.964;13.448;2024-02-28T04:59:20;101540.06;;;1.11;100.00
29433;BME280;16405;53.964;13.448;2024-02-28T05:01:46;101536.50;;;0.96;100.00
29433;BME280;16405;53.964;13.448;2024-02-28T05:04:12;101546.84;;;0.89;100.00
29433;BME280;16405;53.964;13.448;2024-02-28T05:06:38;101549.44;;;0.89;100.00
29433;BME280;16405;53.964;13.448;2024-02-28T05:09:10;101553.72;;;0.88;100.00
29433;BME280;16405;53.964;13.448;2024-02-28T05:11:35;101552.84;;;0.83;100.00
29433;BME280;16405;53.964;13.448;2024-02-28T05:14:01;101551.13;;;0.85;100.00
29433;BME280;16405;53.964;13.448;2024-02-28T05:16:27;101549.44;;;0.87;100.00
29433;BME280;16405;53.964;13.448;2024-02-28T05:18:53;101549.44;;;0.92;100.00
29433;BME280;16405;53.964;13.448;2024-02-28T05:21:19;101553.81;;;0.97;100.00
29433;BME280;16405;53.964;13.448;2024-02-28T05:23:52;101553.81;;;1.00;100.00
29433;BME280;16405;53.964;13.448;2024-02-28T05:26:18;101556.44;;;1.02;100.00
29433;BME280;16405;53.964;13.448;2024-02-28T05:28:44;101558.16;;;1.05;100.00
29433;BME280;16405;53.964;13.448;2024-02-28T05:31:26;101561.66;;;1.08;100.00
29433;BME280;16405;53.964;13.448;2024-02-28T05:33:59;101557.38;;;1.15;100.00
29433;BME280;16405;53.964;13.448;2024-02-28T05:36:27;101553.94;;;1.25;100.00
29433;BME280;16405;53.964;13.448;2024-02-28T05:38:59;101568.69;;;1.34;100.00
29433;BME280;16405;53.964;13.448;2024-02-28T05:41:31;101569.63;;;1.40;100.00
29433;BME280;16405;53.964;13.448;2024-02-28T05:43:56;101560.97;;;1.46;100.00
29433;BME280;16405;53.964;13.448;2024-02-28T05:46:22;101567.06;;;1.50;100.00
29433;BME280;16405;53.964;13.448;2024-02-28T05:48:56;101577.38;;;1.42;100.00
29433;BME280;16405;53.964;13.448;2024-02-28T05:51:22;101584.28;;;1.37;100.00
29433;BME280;16405;53.964;13.448;2024-02-28T05:53:48;101588.59;;;1.33;100.00
29433;BME280;16405;53.964;13.448;2024-02-28T05:56:21;101593.75;;;1.32;100.00
29433;BME280;16405;53.964;13.448;2024-02-28T05:58:48;101596.34;;;1.32;100.00
29433;BME280;16405;53.964;13.448;2024-02-28T06:01:17;101598.09;;;1.30;100.00
29433;BME280;16405;53.964;13.448;2024-02-28T06:03:51;101593.72;;;1.21;100.00
29433;BME280;16405;53.964;13.448;2024-02-28T06:06:17;101585.06;;;1.22;100.00
29433;BME280;16405;53.964;13.448;2024-02-28T06:08:43;101592.84;;;1.17;100.00
29433;BME280;16405;53.964;13.448;2024-02-28T06:11:10;101607.53;;;1.17;100.00
29433;BME280;16405;53.964;13.448;2024-02-28T06:13:45;101597.16;;;1.15;100.00
29433;BME280;16405;53.964;13.448;2024-02-28T06:16:14;101600.63;;;1.19;100.00
29433;BME280;16405;53.964;13.448;2024-02-28T06:18:45;101616.22;;;1.22;100.00
29433;BME280;16405;53.964;13.448;2024-02-28T06:21:13;101608.38;;;1.14;100.00
29433;BME280;16405;53.964;13.448;2024-02-28T06:23:39;101614.47;;;1.19;100.00
29433;BME280;16405;53.964;13.448;2024-02-28T06:26:04;101617.97;;;1.29;100.00
29433;BME280;16405;53.964;13.448;2024-02-28T06:28:30;101616.25;;;1.31;100.00
29433;BME280;16405;53.964;13.448;2024-02-28T06:31:03;101620.59;;;1.34;100.00
29433;BME280;16405;53.964;13.448;2024-02-28T06:33:28;101629.28;;;1.37;100.00
29433;BME280;16405;53.964;13.448;2024-02-28T06:35:54;101630.16;;;1.36;100.00
29433;BME280;16405;53.964;13.448;2024-02-28T06:38:20;101634.47;;;1.42;100.00
29433;BME280;16405;53.964;13.448;2024-02-28T06:40:46;101626.72;;;1.40;100.00
29433;BME280;16405;53.964;13.448;2024-02-28T06:43:16;101627.56;;;1.42;100.00
29433;BME280;16405;53.964;13.448;2024-02-28T06:45:42;101631.03;;;1.41;100.00
29433;BME280;16405;53.964;13.448;2024-02-28T06:48:17;101617.16;;;1.35;100.00
29433;BME280;16405;53.964;13.448;2024-02-28T06:50:43;101623.22;;;1.37;100.00
29433;BME280;16405;53.964;13.448;2024-02-28T06:53:18;101627.50;;;1.33;100.00
29433;BME280;16405;53.964;13.448;2024-02-28T06:55:43;101625.72;;;1.20;100.00
29433;BME280;16405;53.964;13.448;2024-02-28T06:58:11;101633.44;;;1.12;100.00
29433;BME280;16405;53.964;13.448;2024-02-28T07:00:47;101628.16;;;1.01;100.00
29433;BME280;16405;53.964;13.448;2024-02-28T07:03:12;101631.63;;;0.97;100.00
29433;BME280;16405;53.964;13.448;2024-02-28T07:05:38;101635.00;;;0.87;100.00
29433;BME280;16405;53.964;13.448;2024-02-28T07:08:13;101633.31;;;0.94;100.00
29433;BME280;16405;53.964;13.448;2024-02-28T07:10:40;101640.28;;;0.99;100.00
29433;BME280;16405;53.964;13.448;2024-02-28T07:13:09;101642.84;;;0.98;100.00
29433;BME280;16405;53.964;13.448;2024-02-28T07:15:42;101641.88;;;0.84;100.00
29433;BME280;16405;53.964;13.448;2024-02-28T07:18:09;101648.78;;;0.83;100.00
29433;BME280;16405;53.964;13.448;2024-02-28T07:20:35;101647.91;;;0.84;100.00
29433;BME280;16405;53.964;13.448;2024-02-28T07:23:10;101650.50;;;0.84;100.00
29433;BME280;16405;53.964;13.448;2024-02-28T07:25:35;101642.81;;;0.93;100.00
29433;BME280;16405;53.964;13.448;2024-02-28T07:28:04;101647.13;;;0.94;100.00
29433;BME280;16405;53.964;13.448;2024-02-28T07:30:37;101649.78;;;1.03;100.00
29433;BME280;16405;53.964;13.448;2024-02-28T07:33:05;101653.31;;;1.10;100.00
29433;BME280;16405;53.964;13.448;2024-02-28T07:35:31;101658.59;;;1.21;100.00
29433;BME280;16405;53.964;13.448;2024-02-28T07:38:02;101648.25;;;1.32;100.00
29433;BME280;16405;53.964;13.448;2024-02-28T07:40:28;101662.97;;;1.30;100.00
29433;BME280;16405;53.964;13.448;2024-02-28T07:42:54;101661.16;;;1.18;100.00
29433;BME280;16405;53.964;13.448;2024-02-28T07:45:19;101657.66;;;1.13;100.00
29433;BME280;16405;53.964;13.448;2024-02-28T07:47:45;101661.13;;;1.13;100.00
29433;BME280;16405;53.964;13.448;2024-02-28T07:50:11;101671.44;;;1.06;100.00
29433;BME280;16405;53.964;13.448;2024-02-28T07:52:44;101670.63;;;1.11;100.00
29433;BME280;16405;53.964;13.448;2024-02-28T07:55:10;101661.09;;;1.12;100.00
29433;BME280;16405;53.964;13.448;2024-02-28T07:57:36;101656.78;;;1.11;100.00
29433;BME280;16405;53.964;13.448;2024-02-28T08:00:03;101659.44;;;1.17;100.00
29433;BME280;16405;53.964;13.448;2024-02-28T08:02:32;101652.47;;;1.16;100.00
29433;BME280;16405;53.964;13.448;2024-02-28T08:05:00;101660.00;;;0.84;100.00
29433;BME280;16405;53.964;13.448;2024-02-28T08:07:26;101657.44;;;0.85;100.00
29433;BME280;16405;53.964;13.448;2024-02-28T08:09:51;101651.44;;;0.92;100.00
29433;BME280;16405;53.964;13.448;2024-02-28T08:12:18;101667.81;;;0.85;100.00
29433;BME280;16405;53.964;13.448;2024-02-28T08:14:51;101662.56;;;0.76;100.00
29433;BME280;16405;53.964;13.448;2024-02-28T08:17:17;101668.59;;;0.75;100.00
29433;BME280;16405;53.964;13.448;2024-02-28T08:19:45;101671.22;;;0.78;100.00
29433;BME280;16405;53.964;13.448;2024-02-28T08:22:11;101686.00;;;0.93;100.00
29433;BME280;16405;53.964;13.448;2024-02-28T08:24:46;101688.69;;;1.00;100.00
29433;BME280;16405;53.964;13.448;2024-02-28T08:27:12;101694.78;;;1.06;100.00
29433;BME280;16405;53.964;13.448;2024-02-28T08:29:48;101699.06;;;1.00;100.00
29433;BME280;16405;53.964;13.448;2024-02-28T08:32:14;101699.06;;;1.03;100.00
29433;BME280;16405;53.964;13.448;2024-02-28T08:34:44;101693.00;;;0.98;100.00
29433;BME280;16405;53.964;13.448;2024-02-28T08:37:14;101688.69;;;1.03;100.00
29433;BME280;16405;53.964;13.448;2024-02-28T08:39:42;101693.13;;;1.14;100.00
29433;BME280;16405;53.964;13.448;2024-02-28T08:42:08;101690.38;;;0.95;100.00
29433;BME280;16405;53.964;13.448;2024-02-28T08:44:34;101688.69;;;1.03;100.00
29433;BME280;16405;53.964;13.448;2024-02-28T08:47:00;101692.22;;;1.12;100.00
29433;BME280;16405;53.964;13.448;2024-02-28T08:49:33;101692.19;;;1.06;100.00
29433;BME280;16405;53.964;13.448;2024-02-28T08:51:59;101700.78;;;1.01;100.00
29433;BME280;16405;53.964;13.448;2024-02-28T08:54:25;101704.25;;;1.03;100.00
29433;BME280;16405;53.964;13.448;2024-02-28T08:56:51;101699.06;;;1.03;100.00
29433;BME280;16405;53.964;13.448;2024-02-28T08:59:26;101694.53;;;0.79;100.00
29433;BME280;16405;53.964;13.448;2024-02-28T09:01:54;101705.03;;;0.89;100.00
29433;BME280;16405;53.964;13.448;2024-02-28T09:04:20;101705.69;;;0.71;100.00
29433;BME280;16405;53.964;13.448;2024-02-28T09:06:52;101711.50;;;0.44;100.00
29433;BME280;16405;53.964;13.448;2024-02-28T09:09:21;101721.88;;;0.47;100.00
29433;BME280;16405;53.964;13.448;2024-02-28T09:11:47;101721.59;;;0.24;100.00
29433;BME280;16405;53.964;13.448;2024-02-28T09:14:20;101721.81;;;0.39;100.00
29433;BME280;16405;53.964;13.448;2024-02-28T09:16:46;101728.69;;;0.38;100.00
29433;BME280;16405;53.964;13.448;2024-02-28T09:19:13;101728.81;;;0.48;100.00
29433;BME280;16405;53.964;13.448;2024-02-28T09:21:39;101724.34;;;0.36;100.00
29433;BME280;16405;53.964;13.448;2024-02-28T09:24:14;101736.13;;;0.11;100.00
29433;BME280;16405;53.964;13.448;2024-02-28T09:26:43;101724.53;;;-0.17;100.00
29433;BME280;16405;53.964;13.448;2024-02-28T09:29:18;101727.13;;;-0.19;100.00
29433;BME280;16405;53.964;13.448;2024-02-28T09:31:44;101737.72;;;-0.02;100.00
29433;BME280;16405;53.964;13.448;2024-02-28T09:34:10;101746.28;;;-0.06;100.00
29433;BME280;16405;53.964;13.448;2024-02-28T09:36:48;101748.13;;;0.03;100.00
29433;BME280;16405;53.964;13.448;2024-02-28T09:39:22;101742.00;;;-0.04;100.00
29433;BME280;16405;53.964;13.448;2024-02-28T09:41:51;101741.09;;;-0.05;100.00
29433;BME280;16405;53.964;13.448;2024-02-28T09:44:17;101741.91;;;-0.10;100.00
29433;BME280;16405;53.964;13.448;2024-02-28T09:46:58;101747.84;;;-0.17;100.00
29433;BME280;16405;53.964;13.448;2024-02-28T09:49:50;101756.47;;;-0.18;100.00
29433;BME280;16405;53.964;13.448;2024-02-28T09:52:17;101739.34;;;-0.07;100.00
29433;BME280;16405;53.964;13.448;2024-02-28T09:54:44;101743.78;;;0.02;100.00
29433;BME280;16405;53.964;13.448;2024-02-28T09:57:15;101739.34;;;-0.07;100.00
29433;BME280;16405;53.964;13.448;2024-02-28T09:59:44;101737.81;;;0.07;100.00
29433;BME280;16405;53.964;13.448;2024-02-28T10:02:12;101743.16;;;0.21;100.00
29433;BME280;16405;53.964;13.448;2024-02-28T10:04:50;101740.88;;;0.46;100.00
29433;BME280;16405;53.964;13.448;2024-02-28T10:07:25;101742.50;;;0.37;100.00
29433;BME280;16405;53.964;13.448;2024-02-28T10:09:54;101749.56;;;0.51;100.00
29433;BME280;16405;53.964;13.448;2024-02-28T10:12:26;101741.84;;;0.55;100.00
29433;BME280;16405;53.964;13.448;2024-02-28T10:14:52;101742.88;;;0.70;100.00
29433;BME280;16405;53.964;13.448;2024-02-28T10:17:32;101743.84;;;0.82;100.00
29433;BME280;16405;53.964;13.448;2024-02-28T10:20:02;101756.09;;;0.97;100.00
29433;BME280;16405;53.964;13.448;2024-02-28T10:22:36;101757.03;;;1.06;100.00
29433;BME280;16405;53.964;13.448;2024-02-28T10:25:03;101763.97;;;1.10;100.00
29433;BME280;16405;53.964;13.448;2024-02-28T10:27:43;101764.88;;;1.10;100.00
29433;BME280;16405;53.964;13.448;2024-02-28T10:30:12;101770.09;;;1.15;100.00
29433;BME280;16405;53.964;13.448;2024-02-28T10:32:51;101772.59;;;1.06;100.00
29433;BME280;16405;53.964;13.448;2024-02-28T10:35:41;101773.63;;;1.21;100.00
29433;BME280;16405;53.964;13.448;2024-02-28T10:41:02;101772.84;;;1.33;100.00
29433;BME280;16405;53.964;13.448;2024-02-28T10:43:32;101779.84;;;1.43;100.00
29433;BME280;16405;53.964;13.448;2024-02-28T10:46:05;101776.47;;;1.54;100.00
29433;BME280;16405;53.964;13.448;2024-02-28T10:48:35;101779.13;;;1.63;100.00
29433;BME280;16405;53.964;13.448;2024-02-28T10:51:06;101778.28;;;1.67;100.00
29433;BME280;16405;53.964;13.448;2024-02-28T10:53:47;101777.41;;;1.65;100.00
29433;BME280;16405;53.964;13.448;2024-02-28T10:56:19;101773.97;;;1.69;100.00
29433;BME280;16405;53.964;13.448;2024-02-28T10:59:22;101774.84;;;1.73;100.00
29433;BME280;16405;53.964;13.448;2024-02-28T11:01:49;101770.56;;;1.76;100.00
29433;BME280;16405;53.964;13.448;2024-02-28T11:04:19;101776.66;;;1.81;100.00
29433;BME280;16405;53.964;13.448;2024-02-28T11:06:56;101779.22;;;1.75;100.00
29433;BME280;16405;53.964;13.448;2024-02-28T11:09:46;101775.78;;;1.81;100.00
29433;BME280;16405;53.964;13.448;2024-02-28T11:12:31;101777.50;;;1.79;100.00
29433;BME280;16405;53.964;13.448;2024-02-28T11:15:04;101773.19;;;1.81;100.00
29433;BME280;16405;53.964;13.448;2024-02-28T11:17:34;101768.94;;;1.94;100.00
29433;BME280;16405;53.964;13.448;2024-02-28T11:20:32;101766.38;;;2.00;100.00
29433;BME280;16405;53.964;13.448;2024-02-28T11:23:01;101765.59;;;2.19;100.00
29433;BME280;16405;53.964;13.448;2024-02-28T11:25:38;101780.38;;;2.33;100.00
29433;BME280;16405;53.964;13.448;2024-02-28T11:28:12;101778.72;;;2.47;100.00
29433;BME280;16405;53.964;13.448;2024-02-28T11:30:41;101773.56;;;2.58;100.00
29433;BME280;16405;53.964;13.448;2024-02-28T11:33:08;101769.22;;;2.67;100.00
29433;BME280;16405;53.964;13.448;2024-02-28T11:35:42;101774.44;;;2.74;100.00
29433;BME280;16405;53.964;13.448;2024-02-28T11:38:08;101773.56;;;2.72;100.00
29433;BME280;16405;53.964;13.448;2024-02-28T11:40:51;101777.06;;;2.77;100.00
29433;BME280;16405;53.964;13.448;2024-02-28T11:43:30;101784.88;;;2.77;100.00
29433;BME280;16405;53.964;13.448;2024-02-28T11:45:56;101780.53;;;2.73;100.00
29433;BME280;16405;53.964;13.448;2024-02-28T11:48:31;101776.19;;;2.72;100.00
29433;BME280;16405;53.964;13.448;2024-02-28T11:51:14;101776.19;;;2.69;100.00
29433;BME280;16405;53.964;13.448;2024-02-28T11:53:40;101777.06;;;2.71;100.00
29433;BME280;16405;53.964;13.448;2024-02-28T11:56:30;101776.19;;;2.72;100.00
29433;BME280;16405;53.964;13.448;2024-02-28T11:59:00;101775.31;;;2.66;100.00
29433;BME280;16405;53.964;13.448;2024-02-28T12:01:40;101774.44;;;2.74;100.00
29433;BME280;16405;53.964;13.448;2024-02-28T12:04:17;101772.75;;;2.82;100.00
29433;BME280;16405;53.964;13.448;2024-02-28T12:06:43;101769.28;;;2.94;100.00
29433;BME280;16405;53.964;13.448;2024-02-28T12:09:17;101764.97;;;2.97;100.00
29433;BME280;16405;53.964;13.448;2024-02-28T12:11:46;101769.28;;;2.91;100.00
29433;BME280;16405;53.964;13.448;2024-02-28T12:14:20;101765.84;;;2.90;100.00
29433;BME280;16405;53.964;13.448;2024-02-28T12:16:51;101773.66;;;3.01;100.00
29433;BME280;16405;53.964;13.448;2024-02-28T12:19:42;101771.94;;;3.09;100.00
29433;BME280;16405;53.964;13.448;2024-02-28T12:22:09;101768.44;;;3.15;100.00
29433;BME280;16405;53.964;13.448;2024-02-28T12:24:59;101778.00;;;3.25;100.00
29433;BME280;16405;53.964;13.448;2024-02-28T12:27:33;101767.59;;;3.22;100.00
29433;BME280;16405;53.964;13.448;2024-02-28T12:30:05;101775.41;;;3.33;100.00
29433;BME280;16405;53.964;13.448;2024-02-28T12:32:32;101770.19;;;3.45;100.00
29433;BME280;16405;53.964;13.448;2024-02-28T12:34:58;101769.31;;;3.54;100.00
29433;BME280;16405;53.964;13.448;2024-02-28T12:37:36;101770.16;;;3.66;100.00
29433;BME280;16405;53.964;13.448;2024-02-28T12:40:02;101766.69;;;3.74;100.00
29433;BME280;16405;53.964;13.448;2024-02-28T12:42:39;101771.03;;;3.82;100.00
29433;BME280;16405;53.964;13.448;2024-02-28T12:45:05;101753.66;;;3.87;100.00
29433;BME280;16405;53.964;13.448;2024-02-28T12:47:46;101757.09;;;3.93;99.26
29433;BME280;16405;53.964;13.448;2024-02-28T12:50:12;101758.81;;;3.95;98.12
29433;BME280;16405;53.964;13.448;2024-02-28T12:52:43;101757.97;;;3.95;96.72
29433;BME280;16405;53.964;13.448;2024-02-28T12:55:09;101757.06;;;3.99;96.32